Time;durP1;ratioP1;P1;durP2;ratioP2;P2;SDS_P1;SDS_P2;PMS_P1;PMS_P2;Temp;Humidity;BMP_temperature;BMP_pressure;BME280_temperature;BME280_humidity;BME280_pressure;Samples;Min_cycle;Max_cycle;Signal;HPM_P1;HPM_P2
2023/07/01 00:01:50;;;;;;;5.88;1.30;;;;;;;17.50;74.15;100790.88;4992896;28;97462;-28
2023/07/01 00:04:15;;;;;;;2.08;1.02;;;;;;;17.45;75.82;100765.78;4991920;28;96532;-27
2023/07/01 00:06:44;;;;;;;6.32;1.20;;;;;;;17.55;75.54;100776.75;4992414;28;96839;-27
2023/07/01 00:09:10;;;;;;;1.73;1.13;;;;;;;17.50;74.42;100784.53;4990989;28;101439;-27
2023/07/01 00:11:36;;;;;;;4.65;1.20;;;;;;;17.46;76.26;100778.44;4990881;28;100957;-27
2023/07/01 00:14:02;;;;;;;2.38;0.93;;;;;;;17.39;76.09;100772.66;4990674;28;96558;-27
2023/07/01 00:16:27;;;;;;;3.47;1.42;;;;;;;17.37;75.38;100769.19;4992878;28;96770;-27
2023/07/01 00:18:53;;;;;;;3.38;1.45;;;;;;;17.36;75.64;100759.28;4992104;28;99344;-27
2023/07/01 00:21:18;;;;;;;1.75;1.08;;;;;;;17.37;76.26;100762.88;4992347;28;97749;-27
2023/07/01 00:23:43;;;;;;;3.58;1.33;;;;;;;17.35;76.38;100753.91;4991881;28;96561;-27
2023/07/01 00:26:09;;;;;;;2.88;1.35;;;;;;;17.36;76.08;100759.28;4992362;28;96775;-28
2023/07/01 00:28:34;;;;;;;4.13;1.30;;;;;;;17.32;77.11;100749.59;4992259;28;97856;-27
2023/07/01 00:31:00;;;;;;;2.30;1.23;;;;;;;17.29;77.56;100746.28;4992195;28;98218;-27
2023/07/01 00:33:25;;;;;;;2.97;1.55;;;;;;;17.26;77.36;100746.56;4992008;28;96605;-27
2023/07/01 00:35:50;;;;;;;2.53;1.35;;;;;;;17.20;78.26;100734.28;4991942;28;96871;-27
2023/07/01 00:38:16;;;;;;;2.30;1.30;;;;;;;17.18;79.30;100725.34;4991523;28;97946;-27
2023/07/01 00:40:42;;;;;;;6.15;1.20;;;;;;;17.20;78.23;100715.13;4992827;28;96719;-27
2023/07/01 00:43:07;;;;;;;3.47;1.35;;;;;;;17.22;78.56;100718.59;4992296;28;96726;-27
2023/07/01 00:45:33;;;;;;;2.95;1.20;;;;;;;17.13;78.80;100705.75;4991616;28;100024;-27
2023/07/01 00:47:58;;;;;;;2.05;1.35;;;;;;;17.16;78.91;100708.19;4991510;28;97582;-27
2023/07/01 00:50:24;;;;;;;4.95;1.85;;;;;;;17.11;78.94;100703.19;4992092;28;97222;-27
2023/07/01 00:52:49;;;;;;;3.17;1.17;;;;;;;17.09;79.13;100690.59;4991747;28;96547;-27
2023/07/01 00:55:15;;;;;;;3.15;1.67;;;;;;;17.12;78.08;100699.41;4992110;28;96836;-27
2023/07/01 00:57:41;;;;;;;2.45;1.40;;;;;;;17.10;78.92;100700.56;4991902;28;97943;-27
2023/07/01 01:00:12;;;;;;;2.72;1.42;;;;;;;17.06;79.92;100688.16;4991576;28;98734;-27
2023/07/01 01:02:55;;;;;;;2.83;1.57;;;;;;;17.06;79.17;100689.03;4991554;28;96956;-28
2023/07/01 01:05:44;;;;;;;2.67;1.02;;;;;;;16.98;80.42;100675.19;4992140;28;96544;-27
2023/07/01 01:08:20;;;;;;;1.98;1.38;;;;;;;16.98;80.87;100694.34;4991317;28;99401;-28
2023/07/01 01:10:47;;;;;;;2.20;1.48;;;;;;;17.01;80.10;100685.00;4990121;28;101049;-27
2023/07/01 01:13:16;;;;;;;2.05;1.10;;;;;;;17.00;80.50;100683.28;4991429;28;96582;-27
2023/07/01 01:15:42;;;;;;;5.35;1.42;;;;;;;16.89;82.48;100681.50;4990300;28;97089;-27
2023/07/01 01:18:09;;;;;;;2.20;1.50;;;;;;;16.97;81.39;100679.81;4991207;28;99269;-27
2023/07/01 01:20:38;;;;;;;4.00;1.75;;;;;;;16.95;81.25;100676.34;4989983;28;100866;-27
2023/07/01 01:23:13;;;;;;;4.50;1.80;;;;;;;16.88;81.30;100677.03;4990250;28;96736;-28
2023/07/01 01:25:51;;;;;;;3.03;1.75;;;;;;;16.85;81.89;100675.47;4989763;28;96910;-27
2023/07/01 01:28:17;;;;;;;5.30;1.92;;;;;;;16.78;82.84;100674.25;4993020;28;100979;-27
2023/07/01 01:30:42;;;;;;;4.35;1.63;;;;;;;16.75;82.94;100669.88;4995326;28;98266;-28
2023/07/01 01:33:08;;;;;;;2.50;1.40;;;;;;;16.63;83.44;100651.00;4995117;28;96738;-27
2023/07/01 01:35:33;;;;;;;3.70;1.60;;;;;;;16.64;83.76;100656.34;4994821;28;96775;-26
2023/07/01 01:38:31;;;;;;;3.50;1.70;;;;;;;16.58;85.35;100647.81;4993588;28;97357;-27
2023/07/01 01:41:04;;;;;;;3.90;1.90;;;;;;;16.54;84.78;100645.38;4991357;28;97417;-27
2023/07/01 01:43:53;;;;;;;3.88;1.70;;;;;;;16.55;85.97;100646.22;4993342;28;96722;-26
2023/07/01 01:46:21;;;;;;;1.92;1.48;;;;;;;16.48;86.55;100624.03;4994456;28;96509;-27
2023/07/01 01:48:46;;;;;;;3.05;1.60;;;;;;;16.51;86.07;100625.63;4992948;28;101201;-27
2023/07/01 01:51:14;;;;;;;4.20;1.67;;;;;;;16.59;85.59;100617.63;4994565;28;97411;-27
2023/07/01 01:53:42;;;;;;;3.80;1.85;;;;;;;16.63;85.81;100616.31;4993125;28;96675;-27
2023/07/01 01:56:09;;;;;;;3.15;1.40;;;;;;;16.59;85.85;100609.41;4993459;28;96860;-28
2023/07/01 01:58:35;;;;;;;4.95;1.52;;;;;;;16.62;86.74;100613.72;4992889;28;101159;-27
2023/07/01 02:01:00;;;;;;;4.88;1.70;;;;;;;16.63;86.83;100613.56;4992806;28;100773;-27
2023/07/01 02:03:25;;;;;;;3.10;1.70;;;;;;;16.63;87.15;100615.44;4993794;28;96800;-27
2023/07/01 02:05:51;;;;;;;2.20;1.60;;;;;;;16.60;88.12;100608.38;4994370;28;96839;-27
2023/07/01 02:08:16;;;;;;;3.53;1.65;;;;;;;16.49;88.58;100601.19;4994342;28;97474;-27
2023/07/01 02:10:42;;;;;;;2.00;1.55;;;;;;;16.55;88.08;100614.28;4994682;28;97326;-27
2023/07/01 02:13:07;;;;;;;3.03;1.58;;;;;;;16.52;88.15;100603.63;4994390;28;96745;-28
2023/07/01 02:15:32;;;;;;;3.83;2.00;;;;;;;16.60;87.47;100600.19;4994141;28;96851;-27
2023/07/01 02:17:58;;;;;;;2.70;1.63;;;;;;;16.69;87.59;100609.44;4994179;28;97880;-27
2023/07/01 02:20:23;;;;;;;5.22;1.80;;;;;;;16.68;87.37;100596.75;4994402;28;98355;-27
2023/07/01 02:22:49;;;;;;;4.22;1.67;;;;;;;16.70;87.07;100600.22;4994111;28;96577;-27
2023/07/01 02:25:14;;;;;;;2.08;1.35;;;;;;;16.67;86.83;100584.94;4994084;28;96822;-28
2023/07/01 02:27:39;;;;;;;2.88;1.48;;;;;;;16.78;86.71;100597.66;4993191;28;99664;-27
2023/07/01 02:30:06;;;;;;;5.32;1.42;;;;;;;16.79;87.54;100582.13;4993859;28;97679;-27
2023/07/01 02:32:32;;;;;;;4.47;1.60;;;;;;;16.70;87.45;100573.72;4992471;28;97599;-27
2023/07/01 02:34:57;;;;;;;4.10;1.73;;;;;;;16.81;86.82;100588.34;4994012;28;96802;-27
2023/07/01 02:37:23;;;;;;;2.22;1.55;;;;;;;16.84;85.50;100572.47;4992590;28;107906;-28
2023/07/01 02:39:48;;;;;;;2.67;1.80;;;;;;;16.89;86.44;100583.84;4993879;28;97984;-27
2023/07/01 02:42:19;;;;;;;1.95;1.52;;;;;;;16.88;84.69;100579.41;4993802;28;96719;-27
2023/07/01 02:44:48;;;;;;;2.63;1.67;;;;;;;16.98;84.79;100583.00;4992726;28;96759;-27
2023/07/01 02:47:18;;;;;;;4.25;1.45;;;;;;;16.93;85.79;100584.47;4992253;28;100761;-27
2023/07/01 02:49:44;;;;;;;3.42;2.00;;;;;;;16.89;85.88;100572.06;4992189;28;101156;-27
2023/07/01 02:52:11;;;;;;;2.67;1.77;;;;;;;16.92;85.86;100578.13;4993258;28;96480;-27
2023/07/01 02:54:40;;;;;;;3.60;1.85;;;;;;;16.87;86.85;100579.53;4992290;28;96953;-27
2023/07/01 02:57:07;;;;;;;4.95;1.73;;;;;;;16.92;85.70;100566.28;4993293;28;97991;-27
2023/07/01 02:59:33;;;;;;;3.03;1.83;;;;;;;16.88;87.19;100565.72;4991974;28;98947;-27
2023/07/01 03:01:58;;;;;;;2.63;1.90;;;;;;;16.90;86.91;100565.56;4993562;28;96544;-27
2023/07/01 03:04:24;;;;;;;2.35;1.83;;;;;;;16.92;86.06;100569.03;4993485;28;96888;-27
2023/07/01 03:06:49;;;;;;;2.97;1.85;;;;;;;16.88;88.42;100563.00;4993544;28;97924;-29
2023/07/01 03:09:14;;;;;;;4.30;1.65;;;;;;;16.88;88.55;100563.00;4993942;28;97295;-27
2023/07/01 03:11:40;;;;;;;5.35;1.90;;;;;;;16.85;88.85;100555.06;4993429;28;96580;-27
2023/07/01 03:14:05;;;;;;;2.25;1.52;;;;;;;16.86;89.47;100558.66;4993262;28;96772;-27
2023/07/01 03:16:31;;;;;;;3.78;2.03;;;;;;;16.85;88.87;100555.06;4992825;28;97946;-27
2023/07/01 03:19:00;;;;;;;2.97;1.60;;;;;;;16.85;89.79;100559.66;4993212;28;97520;-28
2023/07/01 03:21:26;;;;;;;2.63;1.88;;;;;;;16.85;89.01;100551.44;4993239;28;96638;-27
2023/07/01 03:23:52;;;;;;;4.72;1.77;;;;;;;16.87;89.22;100544.84;4991910;28;96836;-28
2023/07/01 03:26:17;;;;;;;4.68;1.58;;;;;;;16.83;89.03;100540.69;4992594;28;99484;-27
2023/07/01 03:28:43;;;;;;;2.97;1.77;;;;;;;16.87;90.06;100538.50;4993073;28;97443;-27
2023/07/01 03:31:09;;;;;;;2.40;1.48;;;;;;;16.83;91.90;100535.19;4991718;28;96527;-28
2023/07/01 03:33:35;;;;;;;3.17;1.77;;;;;;;16.79;90.97;100532.91;4993558;28;96797;-28
2023/07/01 03:36:01;;;;;;;2.65;1.65;;;;;;;16.81;90.34;100530.88;4991214;28;100802;-28
2023/07/01 03:38:26;;;;;;;2.22;1.48;;;;;;;16.80;90.36;100519.06;4991144;28;100698;-27
2023/07/01 03:40:51;;;;;;;3.17;1.90;;;;;;;16.86;91.20;100523.97;4992732;28;96616;-28
2023/07/01 03:43:17;;;;;;;3.47;1.73;;;;;;;16.86;91.96;100523.09;4992972;28;96836;-27
2023/07/01 03:45:42;;;;;;;2.90;1.75;;;;;;;16.89;91.38;100523.66;4992712;28;97937;-27
2023/07/01 03:48:08;;;;;;;2.85;1.33;;;;;;;16.89;91.84;100526.41;4992652;28;97793;-27
2023/07/01 03:50:33;;;;;;;2.72;1.48;;;;;;;16.83;92.66;100524.25;4992188;28;96605;-26
2023/07/01 03:52:58;;;;;;;2.20;1.38;;;;;;;16.82;92.41;100517.03;4993192;28;96745;-27
2023/07/01 03:55:25;;;;;;;2.22;1.42;;;;;;;16.82;93.49;100518.91;4992586;28;97984;-27
2023/07/01 03:57:50;;;;;;;2.00;1.27;;;;;;;16.77;93.11;100502.91;4992964;28;97214;-28
2023/07/01 04:00:19;;;;;;;3.28;1.58;;;;;;;16.77;95.15;100508.38;4992435;28;96587;-27
2023/07/01 04:02:49;;;;;;;2.38;1.40;;;;;;;16.78;94.63;100504.66;4991284;28;96816;-28
2023/07/01 04:05:15;;;;;;;2.38;1.48;;;;;;;16.78;94.04;100488.22;4991992;28;97967;-28
2023/07/01 04:07:42;;;;;;;2.63;1.45;;;;;;;16.86;94.37;100507.56;4992120;28;99835;-27
2023/07/01 04:10:09;;;;;;;2.63;1.73;;;;;;;16.85;94.10;100494.88;4990967;28;96791;-27
2023/07/01 04:12:35;;;;;;;3.92;1.60;;;;;;;16.82;94.67;100488.81;4992234;28;96777;-28
2023/07/01 04:15:02;;;;;;;3.65;1.38;;;;;;;16.84;94.25;100490.41;4990890;28;101571;-27
2023/07/01 04:17:29;;;;;;;2.55;1.27;;;;;;;16.82;95.26;100492.41;4990814;28;98930;-27
2023/07/01 04:19:56;;;;;;;1.83;1.25;;;;;;;16.83;95.44;100490.53;4991160;28;96640;-27
2023/07/01 04:22:22;;;;;;;1.92;1.17;;;;;;;16.82;95.42;100486.09;4992576;28;96815;-27
2023/07/01 04:24:47;;;;;;;2.42;1.23;;;;;;;16.82;95.11;100481.47;4990442;28;100951;-27
2023/07/01 04:27:13;;;;;;;1.85;1.25;;;;;;;16.82;95.92;100483.34;4992339;28;97211;-27
2023/07/01 04:29:38;;;;;;;2.38;1.48;;;;;;;16.80;95.41;100480.75;4991773;28;96460;-27
2023/07/01 04:32:03;;;;;;;2.50;1.55;;;;;;;16.84;96.48;100490.41;4992080;28;96862;-27
2023/07/01 04:34:29;;;;;;;2.03;1.33;;;;;;;16.87;94.95;100479.16;4992163;28;97969;-27
2023/07/01 04:36:54;;;;;;;1.88;1.40;;;;;;;16.82;95.65;100459.59;4991245;28;97786;-28
2023/07/01 04:39:23;;;;;;;2.03;1.38;;;;;;;16.91;94.11;100477.03;4991913;28;96625;-28
2023/07/01 04:41:49;;;;;;;2.05;1.25;;;;;;;16.90;96.81;100481.63;4990643;28;96859;-28
2023/07/01 04:44:14;;;;;;;1.83;1.25;;;;;;;16.93;94.90;100484.06;4992027;28;98005;-27
2023/07/01 04:46:39;;;;;;;2.50;1.25;;;;;;;16.88;96.62;100464.50;4992177;28;97847;-27
2023/07/01 04:49:05;;;;;;;3.17;1.88;;;;;;;16.94;95.23;100469.38;4992478;28;96645;-28
2023/07/01 04:51:31;;;;;;;3.78;1.45;;;;;;;16.96;95.92;100463.78;4990839;28;96906;-27
2023/07/01 04:53:57;;;;;;;1.77;1.40;;;;;;;16.98;95.16;100469.97;4991243;28;98019;-27
2023/07/01 04:56:24;;;;;;;3.08;1.50;;;;;;;16.97;95.54;100466.38;4991748;28;99557;-28
2023/07/01 04:58:50;;;;;;;2.83;1.38;;;;;;;17.00;95.66;100469.81;4991833;28;96425;-27
2023/07/01 05:01:16;;;;;;;4.43;1.33;;;;;;;17.00;94.44;100462.47;4990728;28;96847;-27
2023/07/01 05:03:41;;;;;;;3.38;1.27;;;;;;;17.04;96.08;100463.03;4995338;28;98062;-27
2023/07/01 05:06:06;;;;;;;2.10;1.50;;;;;;;17.00;94.58;100469.81;4995290;28;97342;-27
2023/07/01 05:08:32;;;;;;;3.22;1.60;;;;;;;17.03;95.28;100453.97;4995243;28;96655;-27
2023/07/01 05:10:57;;;;;;;2.35;1.60;;;;;;;17.11;94.02;100459.59;4995175;28;102155;-27
2023/07/01 05:13:22;;;;;;;2.67;1.50;;;;;;;17.12;95.44;100460.44;4995061;28;97901;-28
2023/07/01 05:15:48;;;;;;;1.83;1.45;;;;;;;17.07;94.35;100443.59;4995067;28;97836;-28
2023/07/01 05:18:13;;;;;;;2.85;1.60;;;;;;;17.08;95.13;100456.25;4994699;28;96725;-27
2023/07/01 05:20:39;;;;;;;2.13;1.05;;;;;;;17.09;95.65;100456.13;4995201;28;96790;-27
2023/07/01 05:23:04;;;;;;;2.50;1.48;;;;;;;17.12;95.04;100455.84;4994681;28;99469;-27
2023/07/01 05:25:30;;;;;;;2.45;1.23;;;;;;;17.10;95.84;100451.50;4994925;28;97782;-28
2023/07/01 05:27:55;;;;;;;1.60;1.10;;;;;;;17.12;94.57;100450.34;4994870;28;96753;-27
2023/07/01 05:30:20;;;;;;;1.90;1.20;;;;;;;17.08;96.20;100445.31;4995156;28;96812;-27
2023/07/01 05:32:46;;;;;;;2.13;1.05;;;;;;;17.07;97.05;100446.34;4994971;28;98180;-27
2023/07/01 05:35:11;;;;;;;1.17;0.82;;;;;;;17.03;97.25;100442.16;4995223;28;99318;-27
2023/07/01 05:37:36;;;;;;;2.03;1.05;;;;;;;17.06;96.54;100445.44;4994355;28;96804;-27
2023/07/01 05:40:02;;;;;;;1.10;0.90;;;;;;;17.05;97.25;100434.69;4994991;28;96769;-27
2023/07/01 05:42:27;;;;;;;1.40;0.95;;;;;;;17.06;97.68;100447.34;4993970;28;99290;-27
2023/07/01 05:44:53;;;;;;;1.27;0.90;;;;;;;16.98;98.33;100428.91;4994764;28;97454;-27
2023/07/01 05:47:18;;;;;;;1.35;1.02;;;;;;;17.07;97.77;100449.94;4994947;28;96787;-27
2023/07/01 05:49:44;;;;;;;0.75;0.70;;;;;;;17.05;97.97;100445.63;4994821;28;96789;-27
2023/07/01 05:52:09;;;;;;;1.55;1.05;;;;;;;17.08;98.00;100451.66;4994340;28;97935;-27
2023/07/01 05:54:34;;;;;;;1.50;0.95;;;;;;;17.14;97.57;100452.97;4994241;28;99054;-27
2023/07/01 05:57:00;;;;;;;1.50;1.02;;;;;;;17.19;96.50;100450.63;4994669;28;96587;-28
2023/07/01 05:59:25;;;;;;;1.55;1.00;;;;;;;17.18;97.69;100451.63;4995102;28;96893;-27
2023/07/01 06:01:51;;;;;;;1.90;1.25;;;;;;;17.17;97.58;100453.50;4994369;28;97561;-27
2023/07/01 06:04:16;;;;;;;1.85;1.23;;;;;;;17.17;97.63;100444.44;4993916;28;100750;-28
2023/07/01 06:06:42;;;;;;;1.55;0.95;;;;;;;17.11;98.69;100445.91;4993799;28;96660;-27
2023/07/01 06:09:08;;;;;;;1.80;1.30;;;;;;;17.11;99.60;100445.03;4994160;28;96938;-27
2023/07/01 06:11:34;;;;;;;1.88;1.13;;;;;;;17.18;98.20;100449.78;4992883;28;101265;-28
2023/07/01 06:13:59;;;;;;;1.58;1.13;;;;;;;17.14;99.39;100444.75;4992189;28;100881;-27
2023/07/01 06:16:25;;;;;;;3.88;1.13;;;;;;;17.16;98.32;100448.16;4994468;28;96516;-27
2023/07/01 06:18:50;;;;;;;1.88;1.23;;;;;;;17.17;98.79;100444.44;4993945;28;96833;-27
2023/07/01 06:21:16;;;;;;;2.13;1.42;;;;;;;17.17;99.14;100452.66;4993845;28;97138;-27
2023/07/01 06:23:41;;;;;;;2.08;1.20;;;;;;;17.16;99.45;100450.91;4994381;28;97750;-28
2023/07/01 06:26:07;;;;;;;4.38;1.30;;;;;;;17.17;98.48;100452.66;4994022;28;96577;-27
2023/07/01 06:28:32;;;;;;;2.28;1.10;;;;;;;17.14;98.74;100442.88;4994209;28;96768;-27
2023/07/01 06:30:57;;;;;;;1.83;1.17;;;;;;;17.17;98.30;100438.97;4993556;28;97591;-27
2023/07/01 06:33:23;;;;;;;1.30;0.60;;;;;;;17.22;98.02;100438.53;4993913;28;97882;-27
2023/07/01 06:35:49;;;;;;;3.00;1.20;;;;;;;17.28;98.08;100446.13;4993711;28;97068;-27
2023/07/01 06:38:14;;;;;;;1.83;1.10;;;;;;;17.30;97.76;100438.63;4993406;28;96822;-27
2023/07/01 06:40:39;;;;;;;1.13;0.80;;;;;;;17.31;99.17;100446.72;4993863;28;97992;-27
2023/07/01 06:43:05;;;;;;;1.30;1.13;;;;;;;17.28;98.60;100429.72;4993800;28;98061;-27
2023/07/01 06:45:31;;;;;;;1.63;1.02;;;;;;;17.33;98.42;100438.38;4993495;28;96643;-26
2023/07/01 06:47:58;;;;;;;1.98;0.93;;;;;;;17.30;99.40;100436.75;4994090;28;96825;-27
2023/07/01 06:50:24;;;;;;;1.20;0.93;;;;;;;17.38;98.76;100442.38;4991963;28;101608;-27
2023/07/01 06:52:49;;;;;;;1.63;1.17;;;;;;;17.40;98.51;100445.81;4993427;28;97578;-27
2023/07/01 06:55:15;;;;;;;3.15;1.00;;;;;;;17.38;98.68;100436.91;4993191;28;96604;-27
2023/07/01 06:57:41;;;;;;;1.33;0.77;;;;;;;17.43;99.29;100438.34;4993594;28;96810;-28
2023/07/01 07:00:12;;;;;;;3.40;0.93;;;;;;;17.50;99.29;100439.47;4992105;28;101000;-28
2023/07/01 07:02:38;;;;;;;1.58;0.98;;;;;;;17.49;99.78;100440.47;4993336;28;99137;-27
2023/07/01 07:05:05;;;;;;;1.20;0.70;;;;;;;17.52;99.64;100448.38;4991850;28;96758;-27
2023/07/01 07:07:31;;;;;;;0.90;0.65;;;;;;;17.50;98.79;100440.31;4991943;28;96879;-27
2023/07/01 07:09:56;;;;;;;1.10;0.73;;;;;;;17.50;98.84;100431.25;4993571;28;97515;-27
2023/07/01 07:12:22;;;;;;;0.88;0.70;;;;;;;17.55;100.00;100429.78;4993618;28;97824;-28
2023/07/01 07:14:47;;;;;;;1.05;0.38;;;;;;;17.52;99.82;100431.94;4991868;28;96615;-27
2023/07/01 07:17:12;;;;;;;0.30;0.30;;;;;;;17.51;99.36;100420.13;4993847;28;96804;-27
2023/07/01 07:19:38;;;;;;;0.90;0.65;;;;;;;17.56;100.00;100426.00;4992533;28;97944;-28
2023/07/01 07:22:05;;;;;;;0.68;0.45;;;;;;;17.58;99.75;100428.59;4993292;28;97415;-28
2023/07/01 07:24:30;;;;;;;0.70;0.60;;;;;;;17.60;98.74;100430.19;4990675;28;96612;-27
2023/07/01 07:26:57;;;;;;;0.60;0.40;;;;;;;17.64;99.31;100425.28;4993008;28;96830;-27
2023/07/01 07:29:24;;;;;;;0.77;0.38;;;;;;;17.63;99.59;100423.53;4992897;28;99476;-27
2023/07/01 07:31:50;;;;;;;1.10;0.75;;;;;;;17.58;100.00;100423.13;4991548;28;101462;-26
2023/07/01 07:34:15;;;;;;;0.73;0.43;;;;;;;17.59;100.00;100422.09;4991147;28;96799;-27
2023/07/01 07:36:41;;;;;;;1.42;0.65;;;;;;;17.66;100.00;100425.09;4992998;28;96831;-27
2023/07/01 07:39:06;;;;;;;0.45;0.30;;;;;;;17.64;100.00;100419.81;4992552;28;99315;-28
2023/07/01 07:41:32;;;;;;;0.65;0.40;;;;;;;17.69;100.00;100428.44;4992511;28;106509;-26
2023/07/01 07:43:57;;;;;;;0.63;0.60;;;;;;;17.70;100.00;100419.19;4992546;28;96723;-27
2023/07/01 07:46:22;;;;;;;0.60;0.30;;;;;;;17.73;100.00;100424.38;4992542;28;96912;-27
2023/07/01 07:48:48;;;;;;;0.85;0.55;;;;;;;17.69;100.00;100406.50;4992561;28;97522;-27
2023/07/01 07:51:13;;;;;;;0.93;0.60;;;;;;;17.83;100.00;100421.63;4992825;28;97776;-27
2023/07/01 07:53:39;;;;;;;0.40;0.40;;;;;;;17.88;100.00;100426.66;4992785;28;97373;-27
2023/07/01 07:56:04;;;;;;;0.35;0.35;;;;;;;17.90;100.00;100433.69;4992843;28;96805;-29
2023/07/01 07:58:29;;;;;;;1.02;0.70;;;;;;;17.88;100.00;100416.53;4992714;28;98180;-27
2023/07/01 08:00:55;;;;;;;1.50;0.55;;;;;;;17.92;99.56;100415.19;4992945;28;97825;-27
2023/07/01 08:03:20;;;;;;;0.70;0.47;;;;;;;17.96;99.53;100430.34;4992452;28;96745;-28
2023/07/01 08:05:48;;;;;;;1.42;0.73;;;;;;;17.96;100.00;100421.25;4992650;28;96805;-27
2023/07/01 08:08:14;;;;;;;0.80;0.63;;;;;;;17.95;99.86;100423.13;4990395;28;99472;-27
2023/07/01 08:10:45;;;;;;;2.35;0.90;;;;;;;18.01;100.00;100422.50;4991021;28;100932;-27
2023/07/01 08:13:10;;;;;;;1.75;0.88;;;;;;;18.05;99.36;100420.34;4992298;28;96599;-27
2023/07/01 08:15:36;;;;;;;4.75;1.17;;;;;;;18.12;100.00;100423.34;4992626;28;96884;-27
2023/07/01 08:18:01;;;;;;;3.38;0.80;;;;;;;18.15;100.00;100412.91;4992265;28;97850;-27
2023/07/01 08:20:26;;;;;;;1.38;0.75;;;;;;;18.17;100.00;100416.38;4991984;28;99336;-27
2023/07/01 08:22:52;;;;;;;1.58;0.80;;;;;;;18.19;100.00;100413.47;4992569;28;96450;-28
2023/07/01 08:25:17;;;;;;;0.82;0.70;;;;;;;18.24;99.46;100420.22;4992506;28;96891;-29
2023/07/01 08:27:43;;;;;;;1.00;0.68;;;;;;;18.33;100.00;100412.94;4992309;28;97358;-28
2023/07/01 08:30:08;;;;;;;1.63;1.00;;;;;;;18.33;99.84;100407.47;4992255;28;97979;-28
2023/07/01 08:32:34;;;;;;;1.42;0.75;;;;;;;18.43;99.34;100410.97;4991345;28;96676;-27
2023/07/01 08:34:59;;;;;;;1.92;1.08;;;;;;;18.41;100.00;100423.13;4991918;28;96777;-27
2023/07/01 08:37:25;;;;;;;4.45;1.25;;;;;;;18.35;99.65;100408.16;4990980;28;98853;-27
2023/07/01 08:39:50;;;;;;;1.23;0.90;;;;;;;18.35;99.01;100418.25;4991658;28;97489;-27
2023/07/01 08:42:21;;;;;;;1.20;0.75;;;;;;;18.34;100.00;100414.66;4990767;28;96618;-27
2023/07/01 08:44:50;;;;;;;1.20;0.83;;;;;;;18.32;100.00;100402.13;4989515;28;96894;-29
2023/07/01 08:47:16;;;;;;;1.85;1.17;;;;;;;18.33;100.00;100403.81;4989920;28;101046;-27
2023/07/01 08:49:47;;;;;;;2.00;1.15;;;;;;;18.36;100.00;100406.28;4990775;28;98895;-27
2023/07/01 08:52:15;;;;;;;1.35;0.90;;;;;;;18.38;100.00;100409.75;4992166;28;96650;-27
2023/07/01 08:54:41;;;;;;;0.77;0.57;;;;;;;18.37;99.92;100413.47;4990594;28;96926;-27
2023/07/01 08:57:10;;;;;;;2.42;0.93;;;;;;;18.37;99.63;100411.59;4991110;28;99874;-26
2023/07/01 08:59:36;;;;;;;0.80;0.70;;;;;;;18.42;99.93;100413.88;4989971;28;101066;-27
2023/07/01 09:02:02;;;;;;;1.60;0.68;;;;;;;18.41;100.00;100413.00;4990560;28;96604;-27
2023/07/01 09:04:27;;;;;;;1.05;0.70;;;;;;;18.40;100.00;100422.28;4991908;28;96858;-27
2023/07/01 09:06:53;;;;;;;1.52;0.60;;;;;;;18.42;100.00;100417.50;4991590;28;98020;-28
2023/07/01 09:09:18;;;;;;;0.93;0.60;;;;;;;18.48;99.02;100426.97;4991631;28;97777;-27
2023/07/01 09:11:44;;;;;;;0.85;0.52;;;;;;;18.41;99.11;100403.94;4991587;28;96512;-27
2023/07/01 09:14:09;;;;;;;1.65;0.40;;;;;;;18.45;100.00;100419.06;4991978;28;96789;-27
2023/07/01 09:16:36;;;;;;;1.25;0.50;;;;;;;18.45;99.70;100417.19;4991322;28;99671;-27
2023/07/01 09:19:10;;;;;;;0.80;0.55;;;;;;;18.48;99.99;100417.88;4989977;28;100822;-27
2023/07/01 09:21:37;;;;;;;0.30;0.30;;;;;;;18.46;99.53;100415.28;4990999;28;96697;-28
2023/07/01 09:24:05;;;;;;;1.25;0.77;;;;;;;18.46;100.00;100427.13;4990137;28;96968;-27
2023/07/01 09:26:32;;;;;;;1.02;0.55;;;;;;;18.47;100.00;100427.97;4991214;28;99600;-27
2023/07/01 09:28:58;;;;;;;1.25;0.77;;;;;;;18.40;99.79;100426.88;4990040;28;101009;-27
2023/07/01 09:31:25;;;;;;;1.90;1.10;;;;;;;18.42;99.54;100422.97;4989976;28;96746;-26
2023/07/01 09:33:58;;;;;;;4.47;1.40;;;;;;;18.47;99.53;100427.97;4991310;28;96846;-27
2023/07/01 09:36:28;;;;;;;2.13;1.42;;;;;;;18.49;99.34;100423.19;4989152;28;100953;-27
2023/07/01 09:38:54;;;;;;;2.22;1.27;;;;;;;18.48;99.50;100421.47;4990193;28;101297;-27
2023/07/01 09:41:23;;;;;;;3.10;1.60;;;;;;;18.45;99.49;100422.66;4991543;28;96739;-27
2023/07/01 09:43:50;;;;;;;2.05;1.38;;;;;;;18.48;98.03;100423.38;4991080;28;96817;-27
2023/07/01 09:46:15;;;;;;;2.65;1.25;;;;;;;18.55;98.88;100427.22;4989283;28;101123;-27
2023/07/01 09:48:53;;;;;;;3.85;1.50;;;;;;;18.60;98.09;100427.59;4993353;28;97608;-27
2023/07/01 09:51:19;;;;;;;4.32;1.90;;;;;;;18.57;97.46;100423.28;4993231;28;96663;-27
2023/07/01 09:53:45;;;;;;;3.38;1.33;;;;;;;18.54;98.73;100415.34;4994527;28;96864;-27
2023/07/01 09:56:13;;;;;;;2.97;1.48;;;;;;;18.56;98.04;100418.81;4994319;28;99355;-28
2023/07/01 09:58:39;;;;;;;6.07;1.60;;;;;;;18.54;97.71;100414.50;4993045;28;101206;-28
2023/07/01 10:01:05;;;;;;;2.25;1.55;;;;;;;18.57;97.66;100416.94;4994354;28;96585;-27
2023/07/01 10:03:31;;;;;;;5.13;1.70;;;;;;;18.54;97.93;100412.59;4994865;28;96753;-27
2023/07/01 10:05:57;;;;;;;2.63;1.40;;;;;;;18.54;98.72;100420.84;4992776;28;100789;-27
2023/07/01 10:08:22;;;;;;;7.00;2.20;;;;;;;18.54;98.53;100420.84;4994110;28;97971;-27
2023/07/01 10:11:04;;;;;;;5.72;1.83;;;;;;;18.60;96.96;100414.75;4993953;28;96704;-27
2023/07/01 10:13:33;;;;;;;3.38;1.80;;;;;;;18.57;98.55;100417.81;4994640;28;96488;-28
2023/07/01 10:16:02;;;;;;;2.25;1.40;;;;;;;18.63;97.34;100425.38;4992676;28;100859;-26
2023/07/01 10:18:30;;;;;;;3.65;1.33;;;;;;;18.64;98.64;100435.38;4993992;28;97911;-27
2023/07/01 10:21:24;;;;;;;2.03;1.30;;;;;;;18.65;98.58;100428.84;4993871;28;96668;-26
2023/07/01 10:23:51;;;;;;;2.40;1.27;;;;;;;18.59;98.27;100423.13;4992619;28;96843;-28
2023/07/01 10:26:31;;;;;;;1.67;1.20;;;;;;;18.65;97.88;100434.31;4992295;28;100910;-27
2023/07/01 10:28:57;;;;;;;4.22;1.55;;;;;;;18.67;98.77;100436.94;4994292;28;97799;-28
2023/07/01 10:31:23;;;;;;;3.22;1.50;;;;;;;18.67;97.90;100426.81;4993836;28;96631;-26
2023/07/01 10:33:50;;;;;;;4.28;1.77;;;;;;;18.73;97.71;100429.94;4992611;28;96898;-28
2023/07/01 10:36:18;;;;;;;2.92;1.65;;;;;;;18.77;97.65;100424.00;4990889;28;101400;-27
2023/07/01 10:38:44;;;;;;;2.60;1.70;;;;;;;18.79;96.76;100421.13;4993738;28;97822;-27
2023/07/01 10:41:10;;;;;;;3.05;1.88;;;;;;;18.91;96.47;100432.72;4992354;28;96577;-27
2023/07/01 10:43:37;;;;;;;2.30;1.52;;;;;;;18.95;96.81;100432.25;4993999;28;96786;-28
2023/07/01 10:46:02;;;;;;;4.80;2.30;;;;;;;19.02;96.43;100430.56;4991987;28;100788;-27
2023/07/01 10:48:28;;;;;;;2.50;1.65;;;;;;;19.09;95.62;100422.53;4993681;28;97883;-26
2023/07/01 10:51:00;;;;;;;4.07;1.83;;;;;;;19.22;95.43;100423.00;4993821;28;96736;-27
2023/07/01 10:53:26;;;;;;;3.50;1.70;;;;;;;19.31;95.21;100427.53;4994333;28;96806;-27
2023/07/01 10:56:13;;;;;;;3.22;1.63;;;;;;;19.41;96.40;100424.66;4993694;28;97670;-27
2023/07/01 10:58:39;;;;;;;3.35;1.45;;;;;;;19.42;94.47;100420.88;4993250;28;99116;-27
2023/07/01 11:01:05;;;;;;;3.03;1.65;;;;;;;19.38;94.45;100425.00;4993067;28;96509;-26
2023/07/01 11:03:35;;;;;;;1.73;1.30;;;;;;;19.36;93.99;100429.78;4993663;28;96796;-27
2023/07/01 11:06:05;;;;;;;4.07;1.75;;;;;;;19.27;93.55;100419.75;4993209;28;99498;-26
2023/07/01 11:08:33;;;;;;;2.67;1.42;;;;;;;19.34;93.93;100428.22;4992194;28;100929;-27
2023/07/01 11:10:59;;;;;;;3.25;1.95;;;;;;;19.29;94.42;100421.31;4991771;28;96671;-27
2023/07/01 11:13:25;;;;;;;5.38;1.77;;;;;;;19.24;94.10;100429.19;4993622;28;96655;-27
2023/07/01 11:16:04;;;;;;;4.50;1.55;;;;;;;19.21;94.04;100429.53;4991824;28;100861;-27
2023/07/01 11:19:01;;;;;;;2.65;1.60;;;;;;;19.26;93.62;100435.38;4993702;28;97329;-26
2023/07/01 11:21:28;;;;;;;3.90;1.50;;;;;;;19.25;93.17;100435.53;4980596;28;96932;-27
2023/07/01 11:23:55;;;;;;;2.42;1.27;;;;;;;19.34;93.11;100437.31;4991799;28;96860;-26